Time;durP1;ratioP1;P1;durP2;ratioP2;P2;SDS_P1;SDS_P2;PMS_P1;PMS_P2;Temp;Humidity;BMP_temperature;BMP_pressure;BME280_temperature;BME280_humidity;BME280_pressure;Samples;Min_cycle;Max_cycle;Signal;HPM_P1;HPM_P2
2023/07/21 00:01:56;;;;;;;9.55;6.25;;;;;;;;;;5052499;28;20041;-78
2023/07/21 00:04:24;;;;;;;10.85;5.80;;;;;;;;;;5053285;28;20487;-77
2023/07/21 00:06:51;;;;;;;13.95;7.97;;;;;;;;;;5053221;28;20052;-78
2023/07/21 00:09:17;;;;;;;11.40;7.30;;;;;;;;;;5035374;28;20057;-78
2023/07/21 00:11:43;;;;;;;8.00;5.75;;;;;;;;;;5035364;28;20045;-78
2023/07/21 00:14:10;;;;;;;12.98;6.18;;;;;;;;;;5053796;28;20048;-77
2023/07/21 00:16:37;;;;;;;11.23;5.55;;;;;;;;;;5054192;28;20071;-77
2023/07/21 00:19:04;;;;;;;7.35;5.00;;;;;;;;;;5054261;28;20086;-77
2023/07/21 00:21:30;;;;;;;7.97;4.75;;;;;;;;;;5053807;28;20099;-77
2023/07/21 00:23:57;;;;;;;8.15;4.53;;;;;;;;;;5053848;28;20096;-79
2023/07/21 00:26:24;;;;;;;8.50;4.68;;;;;;;;;;5053231;28;20084;-78
2023/07/21 00:28:50;;;;;;;6.65;3.95;;;;;;;;;;5053807;28;20052;-77
2023/07/21 00:31:16;;;;;;;6.75;4.18;;;;;;;;;;5050919;28;20041;-78
2023/07/21 00:33:42;;;;;;;7.85;4.70;;;;;;;;;;5053755;28;20483;-77
2023/07/21 00:36:12;;;;;;;7.28;4.32;;;;;;;;;;5053766;28;20498;-77
2023/07/21 00:38:40;;;;;;;7.65;4.10;;;;;;;;;;5054047;28;20049;-78
2023/07/21 00:41:07;;;;;;;9.70;4.57;;;;;;;;;;5035457;28;20087;-77
2023/07/21 00:43:33;;;;;;;9.32;4.07;;;;;;;;;;5053622;28;20037;-77
2023/07/21 00:45:59;;;;;;;8.90;5.40;;;;;;;;;;5053555;28;20060;-77
2023/07/21 00:48:25;;;;;;;7.65;3.97;;;;;;;;;;5053790;28;20495;-77
2023/07/21 00:50:52;;;;;;;8.70;4.55;;;;;;;;;;5053939;28;20048;-78
2023/07/21 00:53:19;;;;;;;8.25;4.63;;;;;;;;;;5052920;28;20423;-78
2023/07/21 00:55:47;;;;;;;8.75;4.85;;;;;;;;;;5053416;28;20045;-77
2023/07/21 00:58:14;;;;;;;7.72;4.43;;;;;;;;;;5053875;28;20053;-77
2023/07/21 01:00:40;;;;;;;9.05;4.50;;;;;;;;;;5052429;28;20048;-77
2023/07/21 01:03:07;;;;;;;6.95;4.30;;;;;;;;;;5053639;28;20124;-77
2023/07/21 01:05:35;;;;;;;9.45;4.45;;;;;;;;;;5056011;28;20051;-77
2023/07/21 01:08:04;;;;;;;8.18;4.68;;;;;;;;;;5055962;28;20044;-78
2023/07/21 01:10:31;;;;;;;9.75;4.93;;;;;;;;;;5048375;28;20126;-77
2023/07/21 01:12:57;;;;;;;8.82;5.32;;;;;;;;;;5057485;28;20045;-77
2023/07/21 01:15:24;;;;;;;10.98;4.72;;;;;;;;;;5057080;28;20048;-77
2023/07/21 01:17:50;;;;;;;8.63;5.10;;;;;;;;;;5055220;28;20098;-78
2023/07/21 01:20:22;;;;;;;10.57;5.20;;;;;;;;;;5054755;28;20426;-77
2023/07/21 01:22:53;;;;;;;7.78;5.70;;;;;;;;;;5055907;28;20483;-78
2023/07/21 01:25:21;;;;;;;8.73;5.20;;;;;;;;;;5056888;28;20557;-78
2023/07/21 01:27:49;;;;;;;9.25;5.32;;;;;;;;;;5057004;28;20130;-77
2023/07/21 01:30:17;;;;;;;16.60;9.10;;;;;;;;;;5056574;28;20084;-78
2023/07/21 01:32:44;;;;;;;17.05;10.65;;;;;;;;;;5036272;28;20059;-78
2023/07/21 01:35:12;;;;;;;14.48;9.95;;;;;;;;;;5056090;28;20049;-77
2023/07/21 01:37:41;;;;;;;12.45;7.78;;;;;;;;;;5056607;28;20052;-78
2023/07/21 01:40:07;;;;;;;12.50;7.95;;;;;;;;;;5055422;28;20049;-78
2023/07/21 01:42:34;;;;;;;12.57;7.00;;;;;;;;;;5037382;28;20063;-77
2023/07/21 01:45:02;;;;;;;11.40;6.60;;;;;;;;;;5055975;28;20521;-79
2023/07/21 01:47:31;;;;;;;12.10;7.93;;;;;;;;;;5038670;28;20144;-78
2023/07/21 01:49:58;;;;;;;10.40;7.93;;;;;;;;;;5056543;28;20080;-77
2023/07/21 01:52:24;;;;;;;10.32;6.97;;;;;;;;;;5055430;28;20040;-78
2023/07/21 01:54:52;;;;;;;10.50;6.70;;;;;;;;;;5054190;28;20048;-78
2023/07/21 01:57:24;;;;;;;11.27;7.55;;;;;;;;;;5038556;28;20060;-77
2023/07/21 01:59:50;;;;;;;9.98;7.45;;;;;;;;;;5056518;28;20041;-78
2023/07/21 02:02:17;;;;;;;13.65;7.80;;;;;;;;;;5038272;28;20503;-79
2023/07/21 02:04:50;;;;;;;12.27;8.85;;;;;;;;;;5056370;28;20049;-77
2023/07/21 02:07:16;;;;;;;12.60;7.95;;;;;;;;;;5056250;28;20091;-78
2023/07/21 02:09:43;;;;;;;10.55;8.15;;;;;;;;;;5049506;28;20522;-77
2023/07/21 02:12:11;;;;;;;11.43;8.15;;;;;;;;;;5036071;28;20041;-77
2023/07/21 02:14:37;;;;;;;12.20;9.25;;;;;;;;;;5035650;28;20487;-78
2023/07/21 02:17:03;;;;;;;15.40;10.32;;;;;;;;;;5036584;28;20049;-78
2023/07/21 02:19:29;;;;;;;13.43;9.27;;;;;;;;;;5036084;28;20095;-78
2023/07/21 02:21:55;;;;;;;18.58;12.88;;;;;;;;;;5018029;28;20042;-77
2023/07/21 02:24:21;;;;;;;11.45;8.15;;;;;;;;;;5051038;28;20045;-77
2023/07/21 02:26:47;;;;;;;9.63;6.72;;;;;;;;;;5056689;28;20383;-77
2023/07/21 02:29:14;;;;;;;7.63;5.30;;;;;;;;;;5055644;28;20045;-77
2023/07/21 02:31:40;;;;;;;13.38;7.13;;;;;;;;;;5056181;28;20045;-77
2023/07/21 02:34:06;;;;;;;8.55;5.93;;;;;;;;;;5054608;28;20052;-77
2023/07/21 02:36:32;;;;;;;9.25;5.88;;;;;;;;;;5055681;28;20099;-77
2023/07/21 02:38:58;;;;;;;10.23;5.70;;;;;;;;;;5054823;28;20041;-77
2023/07/21 02:41:24;;;;;;;10.45;6.35;;;;;;;;;;5055650;28;20052;-78
2023/07/21 02:43:50;;;;;;;17.00;10.15;;;;;;;;;;5037740;28;20044;-78
2023/07/21 02:46:16;;;;;;;12.88;9.55;;;;;;;;;;5054580;28;20049;-77
2023/07/21 02:48:43;;;;;;;12.20;8.00;;;;;;;;;;5054950;28;20064;-77
2023/07/21 02:51:09;;;;;;;13.10;6.80;;;;;;;;;;5054609;28;20492;-77
2023/07/21 02:53:35;;;;;;;11.43;6.10;;;;;;;;;;5052854;28;20044;-77
2023/07/21 02:56:03;;;;;;;10.05;6.15;;;;;;;;;;5052373;28;20052;-77
2023/07/21 02:58:30;;;;;;;11.10;6.03;;;;;;;;;;5054486;28;20455;-77
2023/07/21 03:00:56;;;;;;;10.32;5.70;;;;;;;;;;5036792;28;20411;-77
2023/07/21 03:03:25;;;;;;;7.78;5.30;;;;;;;;;;5054731;28;20147;-77
2023/07/21 03:05:51;;;;;;;7.93;5.32;;;;;;;;;;5055310;28;20045;-77
2023/07/21 03:08:26;;;;;;;7.72;5.43;;;;;;;;;;5054906;28;20084;-78
2023/07/21 03:10:53;;;;;;;7.55;5.05;;;;;;;;;;5035299;28;20051;-77
2023/07/21 03:13:19;;;;;;;6.88;4.95;;;;;;;;;;5053610;28;20041;-77
2023/07/21 03:15:45;;;;;;;10.15;5.50;;;;;;;;;;5054586;28;20045;-77
2023/07/21 03:18:11;;;;;;;10.43;6.13;;;;;;;;;;5054186;28;20055;-77
2023/07/21 03:20:37;;;;;;;9.90;6.38;;;;;;;;;;5054637;28;20041;-77
2023/07/21 03:23:07;;;;;;;8.73;6.18;;;;;;;;;;5051924;28;20041;-77
2023/07/21 03:25:33;;;;;;;10.25;6.03;;;;;;;;;;5034450;28;20037;-77
2023/07/21 03:27:59;;;;;;;9.00;6.20;;;;;;;;;;5052460;28;20053;-77
2023/07/21 03:30:25;;;;;;;7.78;5.85;;;;;;;;;;5035517;28;20052;-77
2023/07/21 03:32:51;;;;;;;7.18;5.72;;;;;;;;;;5053089;28;20501;-77
2023/07/21 03:35:18;;;;;;;9.93;6.55;;;;;;;;;;5046160;28;20332;-77
2023/07/21 03:37:44;;;;;;;9.23;6.60;;;;;;;;;;5049557;28;20075;-78
2023/07/21 03:40:10;;;;;;;8.75;5.85;;;;;;;;;;5052840;28;20045;-77
2023/07/21 03:42:37;;;;;;;9.60;6.68;;;;;;;;;;5053155;28;20041;-77
2023/07/21 03:45:04;;;;;;;17.63;10.18;;;;;;;;;;5052840;28;20514;-77
2023/07/21 03:47:31;;;;;;;13.30;8.90;;;;;;;;;;5051496;28;20064;-77
2023/07/21 03:49:58;;;;;;;20.48;11.25;;;;;;;;;;5052446;28;20107;-78
2023/07/21 03:52:24;;;;;;;23.83;13.02;;;;;;;;;;5053477;28;20494;-78
2023/07/21 03:54:50;;;;;;;18.70;10.45;;;;;;;;;;5052896;28;20041;-78
2023/07/21 03:57:16;;;;;;;14.32;7.70;;;;;;;;;;5035133;28;20411;-78
2023/07/21 03:59:42;;;;;;;7.43;4.70;;;;;;;;;;5053278;28;20053;-77
2023/07/21 04:02:09;;;;;;;7.10;3.78;;;;;;;;;;5053332;28;20138;-78
2023/07/21 04:04:35;;;;;;;5.60;2.80;;;;;;;;;;5052210;28;20364;-78
2023/07/21 04:07:01;;;;;;;9.40;4.20;;;;;;;;;;5053470;28;20067;-78
2023/07/21 04:09:28;;;;;;;15.05;4.72;;;;;;;;;;5052958;28;20093;-78
2023/07/21 04:11:54;;;;;;;17.40;5.38;;;;;;;;;;5053077;28;20159;-77
2023/07/21 04:14:20;;;;;;;17.42;6.03;;;;;;;;;;5052877;28;20138;-78
2023/07/21 04:16:46;;;;;;;22.23;6.28;;;;;;;;;;5053326;28;20059;-77
2023/07/21 04:19:12;;;;;;;18.27;5.43;;;;;;;;;;5034011;28;20111;-77
2023/07/21 04:21:39;;;;;;;12.25;4.70;;;;;;;;;;5052814;28;20120;-76
2023/07/21 04:24:05;;;;;;;17.05;4.70;;;;;;;;;;5052264;28;20044;-77
2023/07/21 04:26:32;;;;;;;10.88;5.07;;;;;;;;;;5052008;28;20048;-77
2023/07/21 04:28:59;;;;;;;11.63;4.65;;;;;;;;;;5052599;28;20507;-78
2023/07/21 04:31:28;;;;;;;13.65;5.22;;;;;;;;;;5052665;28;20560;-78
2023/07/21 04:33:55;;;;;;;11.60;5.70;;;;;;;;;;5048135;28;20081;-78
2023/07/21 04:36:21;;;;;;;10.88;6.10;;;;;;;;;;5052863;28;20056;-77
2023/07/21 04:38:48;;;;;;;11.88;6.55;;;;;;;;;;5052746;28;20041;-77
2023/07/21 04:41:14;;;;;;;9.52;5.30;;;;;;;;;;5038538;28;20049;-77
2023/07/21 04:43:41;;;;;;;12.20;6.20;;;;;;;;;;5056153;28;20049;-78
2023/07/21 04:46:09;;;;;;;15.23;7.45;;;;;;;;;;5056558;28;20483;-78
2023/07/21 04:48:35;;;;;;;16.10;8.73;;;;;;;;;;5053706;28;20048;-78
2023/07/21 04:51:03;;;;;;;8.43;5.53;;;;;;;;;;5056735;28;20053;-78
2023/07/21 04:53:30;;;;;;;12.30;6.40;;;;;;;;;;5055842;28;20123;-78
2023/07/21 04:55:57;;;;;;;12.88;6.40;;;;;;;;;;5055884;28;20049;-77
2023/07/21 04:58:23;;;;;;;19.50;9.27;;;;;;;;;;5056575;28;20045;-79
2023/07/21 05:00:49;;;;;;;25.35;11.63;;;;;;;;;;5056076;28;20048;-78
2023/07/21 05:03:15;;;;;;;17.77;8.45;;;;;;;;;;5055485;28;20110;-78
2023/07/21 05:05:43;;;;;;;17.13;8.15;;;;;;;;;;5056254;28;20120;-77
2023/07/21 05:08:09;;;;;;;18.35;8.60;;;;;;;;;;5056319;28;20060;-78
2023/07/21 05:10:36;;;;;;;15.20;6.55;;;;;;;;;;5056388;28;20405;-78
2023/07/21 05:13:05;;;;;;;14.93;6.55;;;;;;;;;;5056165;28;20503;-78
2023/07/21 05:15:35;;;;;;;12.00;5.50;;;;;;;;;;5056558;28;20044;-79
2023/07/21 05:18:02;;;;;;;12.43;5.50;;;;;;;;;;5055284;28;20045;-78
2023/07/21 05:20:28;;;;;;;10.40;4.35;;;;;;;;;;5056497;28;20094;-79
2023/07/21 05:22:54;;;;;;;10.68;4.32;;;;;;;;;;5056585;28;20053;-78
2023/07/21 05:25:20;;;;;;;10.40;5.68;;;;;;;;;;5056598;28;20090;-78
2023/07/21 05:27:49;;;;;;;11.25;4.63;;;;;;;;;;5056858;28;20052;-79
2023/07/21 05:30:16;;;;;;;9.02;4.65;;;;;;;;;;5055973;28;20488;-77
2023/07/21 05:32:42;;;;;;;9.60;4.05;;;;;;;;;;5049942;28;20491;-77
2023/07/21 05:35:08;;;;;;;8.45;3.90;;;;;;;;;;5052693;28;20086;-77
2023/07/21 05:37:35;;;;;;;11.38;4.80;;;;;;;;;;5055896;28;20041;-78
2023/07/21 05:40:01;;;;;;;8.77;4.60;;;;;;;;;;5055879;28;20057;-78
2023/07/21 05:42:27;;;;;;;16.75;4.72;;;;;;;;;;5055647;28;20045;-78
2023/07/21 05:44:53;;;;;;;15.45;5.40;;;;;;;;;;5056180;28;20061;-78
2023/07/21 05:47:19;;;;;;;12.15;4.97;;;;;;;;;;5055178;28;20055;-78
2023/07/21 05:49:45;;;;;;;13.43;4.20;;;;;;;;;;5054416;28;20059;-78
2023/07/21 05:52:11;;;;;;;10.13;3.58;;;;;;;;;;5055111;28;20133;-79
2023/07/21 05:54:39;;;;;;;8.95;3.05;;;;;;;;;;5036594;28;20451;-79
2023/07/21 05:57:06;;;;;;;8.23;3.33;;;;;;;;;;5055987;28;20491;-79
2023/07/21 05:59:32;;;;;;;8.82;3.45;;;;;;;;;;5039639;28;20057;-79
2023/07/21 06:01:59;;;;;;;6.22;2.60;;;;;;;;;;5056452;28;20037;-79
2023/07/21 06:04:25;;;;;;;7.63;2.90;;;;;;;;;;5053328;28;20064;-79
2023/07/21 06:06:53;;;;;;;9.07;2.72;;;;;;;;;;5034755;28;20049;-80
2023/07/21 06:09:20;;;;;;;8.50;2.72;;;;;;;;;;5034453;28;20483;-78
2023/07/21 06:11:46;;;;;;;8.68;2.28;;;;;;;;;;5056070;28;20094;-78
2023/07/21 06:14:12;;;;;;;10.30;2.38;;;;;;;;;;5055622;28;20087;-77
2023/07/21 06:16:38;;;;;;;7.55;2.55;;;;;;;;;;5056023;28;20170;-78
2023/07/21 06:19:04;;;;;;;8.43;2.42;;;;;;;;;;5035810;28;20045;-77
2023/07/21 06:21:30;;;;;;;7.35;2.30;;;;;;;;;;5054134;28;20048;-78
2023/07/21 06:23:56;;;;;;;5.80;1.75;;;;;;;;;;5055708;28;20130;-78
2023/07/21 06:26:22;;;;;;;4.25;1.60;;;;;;;;;;5056010;28;20072;-78
2023/07/21 06:28:49;;;;;;;8.57;1.88;;;;;;;;;;5038443;28;20056;-78
2023/07/21 06:31:15;;;;;;;7.10;1.90;;;;;;;;;;5055726;28;20048;-80
2023/07/21 06:33:41;;;;;;;5.97;1.70;;;;;;;;;;5039363;28;20045;-77
2023/07/21 06:36:07;;;;;;;4.93;1.70;;;;;;;;;;5053589;28;20505;-78
2023/07/21 06:38:34;;;;;;;5.75;1.33;;;;;;;;;;5038858;28;20519;-78
2023/07/21 06:41:00;;;;;;;6.03;1.50;;;;;;;;;;5054084;28;20402;-78
2023/07/21 06:43:26;;;;;;;5.55;1.30;;;;;;;;;;5055504;28;20124;-78
2023/07/21 06:45:52;;;;;;;4.13;1.50;;;;;;;;;;5034466;28;20102;-78
2023/07/21 06:48:18;;;;;;;5.97;1.58;;;;;;;;;;5055827;28;20052;-78
2023/07/21 06:50:44;;;;;;;5.30;1.40;;;;;;;;;;5054098;28;20083;-77
2023/07/21 06:53:11;;;;;;;4.85;1.40;;;;;;;;;;5055241;28;20052;-78
2023/07/21 06:55:37;;;;;;;4.53;1.40;;;;;;;;;;5055523;28;20049;-78
2023/07/21 06:58:03;;;;;;;4.45;1.20;;;;;;;;;;5055544;28;20056;-78
2023/07/21 07:00:29;;;;;;;3.58;1.10;;;;;;;;;;5054195;28;20068;-78
2023/07/21 07:02:56;;;;;;;5.70;1.30;;;;;;;;;;5053824;28;20124;-78
2023/07/21 07:05:22;;;;;;;5.10;1.52;;;;;;;;;;5042900;28;20524;-77
2023/07/21 07:07:52;;;;;;;4.45;1.30;;;;;;;;;;5054191;28;20471;-77
2023/07/21 07:10:18;;;;;;;4.35;1.20;;;;;;;;;;5054186;28;20411;-78
2023/07/21 07:12:44;;;;;;;4.57;1.33;;;;;;;;;;5054818;28;20138;-78
2023/07/21 07:15:11;;;;;;;4.00;1.15;;;;;;;;;;5054471;28;20064;-77
2023/07/21 07:17:37;;;;;;;6.03;1.50;;;;;;;;;;5036827;28;20459;-77
2023/07/21 07:20:04;;;;;;;5.63;1.30;;;;;;;;;;5053886;28;20041;-78
2023/07/21 07:22:30;;;;;;;6.45;1.38;;;;;;;;;;5036803;28;20121;-78
2023/07/21 07:24:56;;;;;;;5.10;1.50;;;;;;;;;;5054381;28;20049;-78
2023/07/21 07:27:22;;;;;;;6.00;1.50;;;;;;;;;;5054968;28;20174;-77
2023/07/21 07:29:48;;;;;;;5.28;1.40;;;;;;;;;;5055030;28;20154;-78
2023/07/21 07:32:15;;;;;;;5.20;1.30;;;;;;;;;;5054660;28;20426;-78
2023/07/21 07:34:41;;;;;;;5.82;1.50;;;;;;;;;;5053632;28;20052;-78
2023/07/21 07:37:07;;;;;;;7.20;1.60;;;;;;;;;;5054191;28;20052;-78
2023/07/21 07:39:35;;;;;;;6.53;1.60;;;;;;;;;;5053316;28;20130;-78
2023/07/21 07:42:01;;;;;;;4.43;1.60;;;;;;;;;;5053235;28;20124;-77
2023/07/21 07:44:27;;;;;;;6.07;1.85;;;;;;;;;;5054288;28;20092;-78
2023/07/21 07:46:56;;;;;;;4.13;1.42;;;;;;;;;;5053025;28;20080;-78
2023/07/21 07:49:22;;;;;;;4.70;1.33;;;;;;;;;;5054126;28;20041;-77
2023/07/21 07:51:49;;;;;;;4.10;1.52;;;;;;;;;;5053748;28;20049;-77
2023/07/21 07:54:15;;;;;;;5.97;1.80;;;;;;;;;;5036794;28;20052;-78
2023/07/21 07:56:41;;;;;;;5.75;1.70;;;;;;;;;;5054603;28;20053;-78
2023/07/21 07:59:07;;;;;;;6.70;1.90;;;;;;;;;;5055162;28;20056;-79
2023/07/21 08:01:33;;;;;;;6.50;1.58;;;;;;;;;;5038998;28;20145;-78
2023/07/21 08:03:59;;;;;;;4.20;1.10;;;;;;;;;;5057259;28;20543;-78
2023/07/21 08:06:25;;;;;;;4.75;1.40;;;;;;;;;;5038978;28;20045;-79
2023/07/21 08:08:52;;;;;;;3.58;1.15;;;;;;;;;;5037275;28;20060;-79
2023/07/21 08:11:18;;;;;;;3.30;1.02;;;;;;;;;;5054440;28;20080;-78
2023/07/21 08:13:44;;;;;;;4.43;1.20;;;;;;;;;;5056114;28;20072;-78
2023/07/21 08:16:12;;;;;;;3.00;1.00;;;;;;;;;;5057583;28;20044;-78
2023/07/21 08:18:38;;;;;;;5.03;1.10;;;;;;;;;;5058179;28;20057;-78
2023/07/21 08:21:20;;;;;;;3.10;1.10;;;;;;;;;;5058288;28;20143;-79
2023/07/21 08:23:47;;;;;;;3.28;0.90;;;;;;;;;;5058233;28;20041;-79
2023/07/21 08:26:13;;;;;;;4.18;1.10;;;;;;;;;;5057925;28;20121;-77
2023/07/21 08:28:40;;;;;;;4.13;0.90;;;;;;;;;;5058331;28;20049;-78
2023/07/21 08:31:06;;;;;;;4.03;1.20;;;;;;;;;;5048576;28;20048;-78
2023/07/21 08:33:32;;;;;;;2.63;0.90;;;;;;;;;;5057109;28;20086;-78
2023/07/21 08:35:58;;;;;;;3.88;0.98;;;;;;;;;;5057220;28;20494;-78
2023/07/21 08:38:24;;;;;;;2.95;0.95;;;;;;;;;;5057702;28;20049;-78
2023/07/21 08:40:53;;;;;;;4.20;0.90;;;;;;;;;;5039131;28;20419;-78
2023/07/21 08:43:20;;;;;;;5.07;0.93;;;;;;;;;;5056724;28;20041;-78
2023/07/21 08:45:48;;;;;;;3.60;1.00;;;;;;;;;;5055985;28;20057;-78
2023/07/21 08:48:17;;;;;;;3.05;1.00;;;;;;;;;;5056099;28;20132;-78
2023/07/21 08:50:44;;;;;;;3.17;1.00;;;;;;;;;;5039120;28;20033;-78
2023/07/21 08:53:10;;;;;;;3.70;0.90;;;;;;;;;;5057314;28;20053;-78
2023/07/21 08:55:36;;;;;;;5.68;1.20;;;;;;;;;;5057551;28;20055;-78
2023/07/21 08:58:02;;;;;;;3.95;1.20;;;;;;;;;;5057522;28;20426;-77
2023/07/21 09:00:28;;;;;;;4.05;1.02;;;;;;;;;;5058945;28;20399;-78
2023/07/21 09:03:02;;;;;;;4.32;1.05;;;;;;;;;;5059219;28;20116;-79
2023/07/21 09:05:29;;;;;;;3.13;1.00;;;;;;;;;;5060250;28;20064;-78
2023/07/21 09:07:55;;;;;;;3.20;1.10;;;;;;;;;;5062363;28;20562;-78
2023/07/21 09:10:34;;;;;;;4.30;0.90;;;;;;;;;;5062939;28;20055;-78
2023/07/21 09:13:04;;;;;;;5.10;1.27;;;;;;;;;;5063351;28;20053;-78
2023/07/21 09:15:30;;;;;;;3.30;0.98;;;;;;;;;;5065317;28;20115;-79
2023/07/21 09:18:00;;;;;;;1.98;0.80;;;;;;;;;;5046061;28;20049;-80
2023/07/21 09:20:30;;;;;;;2.05;0.80;;;;;;;;;;5063540;28;20052;-79
2023/07/21 09:22:56;;;;;;;2.47;0.80;;;;;;;;;;5063258;28;20041;-79
2023/07/21 09:25:22;;;;;;;1.73;0.80;;;;;;;;;;5057545;28;20037;-79
2023/07/21 09:27:57;;;;;;;4.38;1.10;;;;;;;;;;5058580;28;20064;-78
2023/07/21 09:30:24;;;;;;;2.78;0.90;;;;;;;;;;5058459;28;20053;-79
2023/07/21 09:32:55;;;;;;;3.95;1.10;;;;;;;;;;5045549;28;20060;-79
2023/07/21 09:35:21;;;;;;;3.67;0.85;;;;;;;;;;5045130;28;20098;-79
2023/07/21 09:37:52;;;;;;;2.33;0.80;;;;;;;;;;5064203;28;20041;-79
2023/07/21 09:40:19;;;;;;;2.93;0.80;;;;;;;;;;5045587;28;20049;-80
2023/07/21 09:42:45;;;;;;;2.38;0.77;;;;;;;;;;5063432;28;20049;-80
2023/07/21 09:45:12;;;;;;;3.65;0.90;;;;;;;;;;5065149;28;20061;-79
2023/07/21 09:47:39;;;;;;;4.13;1.10;;;;;;;;;;5045915;28;20055;-79
2023/07/21 09:50:06;;;;;;;2.70;1.00;;;;;;;;;;5053006;28;20045;-79
2023/07/21 09:52:38;;;;;;;4.07;1.13;;;;;;;;;;5064082;28;20045;-79
2023/07/21 09:55:13;;;;;;;4.07;0.90;;;;;;;;;;5040834;28;20060;-78
2023/07/21 09:57:44;;;;;;;3.20;0.90;;;;;;;;;;5058771;28;20048;-78
2023/07/21 10:00:15;;;;;;;2.80;1.00;;;;;;;;;;5058033;28;20041;-79
2023/07/21 10:02:42;;;;;;;2.88;0.80;;;;;;;;;;5057442;28;20047;-78
2023/07/21 10:05:11;;;;;;;2.55;0.90;;;;;;;;;;5058061;28;20123;-79
2023/07/21 10:07:48;;;;;;;2.88;1.00;;;;;;;;;;5061322;28;20060;-78
2023/07/21 10:10:15;;;;;;;2.90;0.90;;;;;;;;;;5063913;28;20048;-79
2023/07/21 10:12:52;;;;;;;2.72;0.90;;;;;;;;;;5064321;28;20086;-78
2023/07/21 10:15:21;;;;;;;2.13;0.90;;;;;;;;;;5063104;28;20415;-78
2023/07/21 10:17:58;;;;;;;4.30;0.98;;;;;;;;;;5051735;28;20041;-79
2023/07/21 10:20:37;;;;;;;3.03;1.00;;;;;;;;;;5059658;28;20101;-78
2023/07/21 10:23:04;;;;;;;4.78;1.02;;;;;;;;;;5057797;28;20052;-79
2023/07/21 10:25:45;;;;;;;2.38;0.80;;;;;;;;;;5058301;28;20041;-79
2023/07/21 10:28:13;;;;;;;3.13;1.00;;;;;;;;;;5057608;28;20491;-78
2023/07/21 10:30:43;;;;;;;2.80;0.90;;;;;;;;;;5039991;28;20060;-78
2023/07/21 10:33:17;;;;;;;3.08;0.85;;;;;;;;;;5058061;28;20055;-79
2023/07/21 10:35:43;;;;;;;3.47;1.10;;;;;;;;;;5050460;28;20038;-78
2023/07/21 10:38:15;;;;;;;2.15;0.88;;;;;;;;;;5045581;28;20040;-78
2023/07/21 10:40:42;;;;;;;3.78;1.20;;;;;;;;;;5045823;28;20045;-80
2023/07/21 10:43:08;;;;;;;2.83;1.05;;;;;;;;;;5064374;28;20056;-79
2023/07/21 10:45:34;;;;;;;4.15;1.30;;;;;;;;;;5063268;28;20049;-79
2023/07/21 10:48:11;;;;;;;3.08;1.17;;;;;;;;;;5062106;28;20082;-78
2023/07/21 10:50:39;;;;;;;5.45;1.17;;;;;;;;;;5059339;28;20503;-78
2023/07/21 10:53:06;;;;;;;4.85;1.10;;;;;;;;;;5059734;28;20415;-78
2023/07/21 10:55:32;;;;;;;2.78;1.00;;;;;;;;;;5060170;28;20083;-79
2023/07/21 10:57:58;;;;;;;4.70;1.10;;;;;;;;;;5060822;28;20076;-78
2023/07/21 11:00:25;;;;;;;2.72;1.10;;;;;;;;;;5045197;28;20051;-79
2023/07/21 11:02:54;;;;;;;4.65;1.13;;;;;;;;;;5060262;28;20049;-78
2023/07/21 11:05:22;;;;;;;4.00;1.00;;;;;;;;;;5062798;28;20048;-79
2023/07/21 11:07:48;;;;;;;2.72;0.95;;;;;;;;;;5062144;28;20076;-80
2023/07/21 11:10:15;;;;;;;6.20;1.30;;;;;;;;;;5063670;28;20045;-78
2023/07/21 11:12:41;;;;;;;6.07;1.33;;;;;;;;;;5060747;28;20037;-78
2023/07/21 11:15:10;;;;;;;4.47;1.25;;;;;;;;;;5043123;28;20518;-78
2023/07/21 11:17:36;;;;;;;3.72;1.33;;;;;;;;;;5059136;28;20092;-79
2023/07/21 11:20:05;;;;;;;4.32;1.23;;;;;;;;;;5061597;28;20083;-79
2023/07/21 11:22:31;;;;;;;3.45;1.40;;;;;;;;;;5024695;28;20403;-78
2023/07/21 11:25:10;;;;;;;5.38;1.30;;;;;;;;;;5040093;28;20045;-79
2023/07/21 11:27:42;;;;;;;3.70;1.40;;;;;;;;;;5037707;28;20415;-78
2023/07/21 11:30:08;;;;;;;3.72;1.10;;;;;;;;;;5039998;28;20130;-78
2023/07/21 11:32:35;;;;;;;3.40;1.20;;;;;;;;;;5035120;28;20048;-80
2023/07/21 11:35:04;;;;;;;2.78;1.02;;;;;;;;;;5042793;28;20462;-78
2023/07/21 11:37:41;;;;;;;5.40;1.52;;;;;;;;;;5056753;28;20049;-78
2023/07/21 11:40:08;;;;;;;4.07;1.27;;;;;;;;;;5037659;28;20064;-79
2023/07/21 11:42:44;;;;;;;4.35;1.10;;;;;;;;;;5019494;28;20045;-79
2023/07/21 11:45:29;;;;;;;6.22;1.42;;;;;;;;;;5038105;28;20062;-79
2023/07/21 11:47:55;;;;;;;4.60;1.50;;;;;;;;;;5058396;28;20051;-79
2023/07/21 11:50:21;;;;;;;3.83;1.27;;;;;;;;;;5058216;28;20047;-79
2023/07/21 11:52:47;;;;;;;4.65;1.63;;;;;;;;;;5059141;28;20041;-79
2023/07/21 11:55:14;;;;;;;3.85;1.35;;;;;;;;;;5039311;28;20063;-78
2023/07/21 11:57:40;;;;;;;5.43;1.55;;;;;;;;;;5062238;28;20147;-81
2023/07/21 12:00:11;;;;;;;3.55;1.30;;;;;;;;;;5044992;28;20060;-80
2023/07/21 12:02:39;;;;;;;4.82;1.48;;;;;;;;;;5058637;28;20049;-79
2023/07/21 12:05:05;;;;;;;5.85;1.50;;;;;;;;;;5046329;28;20045;-79
2023/07/21 12:07:32;;;;;;;3.53;1.30;;;;;;;;;;5045209;28;20044;-79
2023/07/21 12:10:00;;;;;;;4.15;1.38;;;;;;;;;;5063504;28;20051;-79
2023/07/21 12:12:26;;;;;;;3.90;1.50;;;;;;;;;;5062922;28;20103;-78
2023/07/21 12:14:52;;;;;;;4.43;1.27;;;;;;;;;;5061387;28;20059;-80
2023/07/21 12:17:18;;;;;;;4.18;1.50;;;;;;;;;;5060386;28;20051;-79
2023/07/21 12:19:44;;;;;;;3.13;1.30;;;;;;;;;;5041056;28;20049;-79
2023/07/21 12:22:11;;;;;;;3.05;1.45;;;;;;;;;;5060193;28;20044;-79
2023/07/21 12:24:37;;;;;;;3.25;1.13;;;;;;;;;;5060679;28;20059;-79
2023/07/21 12:27:04;;;;;;;3.72;1.40;;;;;;;;;;5060944;28;20045;-79
2023/07/21 12:29:30;;;;;;;5.47;1.63;;;;;;;;;;5058077;28;20152;-79
2023/07/21 12:31:56;;;;;;;3.10;1.35;;;;;;;;;;5057783;28;20091;-79
2023/07/21 12:34:22;;;;;;;4.93;1.10;;;;;;;;;;5059686;28;20608;-79
2023/07/21 12:36:49;;;;;;;4.20;1.40;;;;;;;;;;5059248;28;20131;-79
2023/07/21 12:39:17;;;;;;;4.25;1.30;;;;;;;;;;5057412;28;20056;-79
2023/07/21 12:41:43;;;;;;;3.25;1.40;;;;;;;;;;5057002;28;20123;-80
2023/07/21 12:44:09;;;;;;;3.60;1.30;;;;;;;;;;5057197;28;20064;-78
2023/07/21 12:46:35;;;;;;;3.45;1.23;;;;;;;;;;5053397;28;20059;-79
2023/07/21 12:49:01;;;;;;;4.10;1.33;;;;;;;;;;5034880;28;20128;-79
2023/07/21 12:51:27;;;;;;;4.00;1.42;;;;;;;;;;5037427;28;20064;-80
2023/07/21 12:53:53;;;;;;;3.90;1.42;;;;;;;;;;5040164;28;20072;-79
2023/07/21 12:56:20;;;;;;;3.55;1.35;;;;;;;;;;5052305;28;20045;-78
2023/07/21 12:58:46;;;;;;;6.50;1.65;;;;;;;;;;5045865;28;20096;-79
2023/07/21 13:01:12;;;;;;;4.65;1.52;;;;;;;;;;5064582;28;20055;-79
2023/07/21 13:03:38;;;;;;;4.03;1.30;;;;;;;;;;5066807;28;20052;-79
2023/07/21 13:06:04;;;;;;;2.63;1.20;;;;;;;;;;5066189;28;20047;-80
2023/07/21 13:08:30;;;;;;;4.00;1.30;;;;;;;;;;5065710;28;20049;-79
2023/07/21 13:10:56;;;;;;;1.88;0.90;;;;;;;;;;5065847;28;20049;-79
2023/07/21 13:13:22;;;;;;;3.22;1.10;;;;;;;;;;5065262;28;20064;-79
2023/07/21 13:15:48;;;;;;;4.35;1.40;;;;;;;;;;5063762;28;20401;-79
2023/07/21 13:18:15;;;;;;;4.30;1.10;;;;;;;;;;5065153;28;20118;-79
2023/07/21 13:20:41;;;;;;;4.43;1.23;;;;;;;;;;5064759;28;20052;-78
2023/07/21 13:23:07;;;;;;;3.90;1.10;;;;;;;;;;5063609;28;20059;-78
2023/07/21 13:25:33;;;;;;;3.75;1.08;;;;;;;;;;5064854;28;20060;-79
2023/07/21 13:28:00;;;;;;;2.35;1.00;;;;;;;;;;5063758;28;20049;-79
2023/07/21 13:30:26;;;;;;;3.22;1.13;;;;;;;;;;5060254;28;20056;-78
2023/07/21 13:32:52;;;;;;;3.92;0.85;;;;;;;;;;5057459;28;20053;-78
2023/07/21 13:35:18;;;;;;;9.18;1.90;;;;;;;;;;5058436;28;20144;-78
2023/07/21 13:37:44;;;;;;;8.07;2.88;;;;;;;;;;5057158;28;20508;-78
2023/07/21 13:40:10;;;;;;;7.03;2.30;;;;;;;;;;5056148;28;20037;-79
2023/07/21 13:42:36;;;;;;;9.02;2.60;;;;;;;;;;5061944;28;20049;-78
2023/07/21 13:45:02;;;;;;;6.20;2.00;;;;;;;;;;5061367;28;20060;-79
2023/07/21 13:47:29;;;;;;;6.10;1.77;;;;;;;;;;5058038;28;20076;-78
2023/07/21 13:49:55;;;;;;;5.35;2.00;;;;;;;;;;5053651;28;20049;-78
2023/07/21 13:52:21;;;;;;;4.95;1.90;;;;;;;;;;5054702;28;20080;-78
2023/07/21 13:54:47;;;;;;;4.30;1.55;;;;;;;;;;5058630;28;20045;-79
2023/07/21 13:57:13;;;;;;;5.35;1.60;;;;;;;;;;5058352;28;20492;-79
2023/07/21 13:59:39;;;;;;;4.95;1.92;;;;;;;;;;5059751;28;20075;-78
2023/07/21 14:02:05;;;;;;;6.70;2.00;;;;;;;;;;5061954;28;20045;-78
2023/07/21 14:04:32;;;;;;;5.07;1.70;;;;;;;;;;5060437;28;20105;-79
2023/07/21 14:06:59;;;;;;;6.15;1.95;;;;;;;;;;5055788;28;20127;-78
2023/07/21 14:09:25;;;;;;;4.70;1.70;;;;;;;;;;5053850;28;20475;-78
2023/07/21 14:11:52;;;;;;;4.40;1.90;;;;;;;;;;5060641;28;20060;-79
2023/07/21 14:14:18;;;;;;;5.65;1.80;;;;;;;;;;5058775;28;20454;-79
2023/07/21 14:16:44;;;;;;;4.82;2.03;;;;;;;;;;5057318;28;20041;-78
2023/07/21 14:19:10;;;;;;;4.85;2.13;;;;;;;;;;5057539;28;20052;-78
2023/07/21 14:21:37;;;;;;;5.45;2.20;;;;;;;;;;5058046;28;20214;-79
2023/07/21 14:24:04;;;;;;;5.78;2.10;;;;;;;;;;5054020;28;20076;-78
2023/07/21 14:26:30;;;;;;;5.57;2.00;;;;;;;;;;5052707;28;20414;-78
2023/07/21 14:28:56;;;;;;;5.47;2.10;;;;;;;;;;5059065;28;20041;-78
2023/07/21 14:31:22;;;;;;;4.57;1.80;;;;;;;;;;5061088;28;20053;-78
2023/07/21 14:33:49;;;;;;;5.32;1.98;;;;;;;;;;5057592;28;20139;-78
2023/07/21 14:36:15;;;;;;;4.10;1.90;;;;;;;;;;5058441;28;20037;-78
2023/07/21 14:38:41;;;;;;;4.20;2.00;;;;;;;;;;5056406;28;20086;-78
2023/07/21 14:41:07;;;;;;;5.00;2.00;;;;;;;;;;5059410;28;20048;-79